nws-alerts: Checking more than four warning/county codes can delay the loading of your pages. You should use a cron job to get the data.

Nearby METAR Reports

 

KFCI - Richmond/Chester, Virginia, USA
Distance from station: ESE 7mi, 12km
Updated: Tue, 26-May-2020 8:56pm EDT
Partly cloudy
Partly cloudy
 Wind from SSE
Wind: SSE 7 mph , 11 km/h
Temperature: 66°F , 19°C
Dew Point: 64°F , 18°C
Humidity: 94%
Barometer: 30.17 inHg , 1021.7 hPa
Clouds: Partly cloudy
Visibility: 10 miles , 16 km
Cloud details: Few Clouds 1700 ft
Partly cloudy 3500 ft
2020/05/27 00:56 KFCI 270056Z AUTO 15006KT 10SM FEW017 SCT035 19/18 A3017 RMK AO2 SLP225 T01940183
KPTB - Petersburg, Virginia, USA
Distance from station: SSE 19mi, 31km
Updated: Tue, 26-May-2020 9:55pm EDT
Mostly cloudy
Mostly cloudy
 Wind from calm
Wind: Calm
Temperature: 66°F , 19°C
Dew Point: 63°F , 17°C
Humidity: 88%
Barometer: 30.16 inHg , 1021.3 hPa
Clouds: Mostly cloudy
Visibility: 10 miles , 16 km
Cloud details: Mostly cloudy 3400 ft
2020/05/27 01:55 KPTB 270155Z AUTO 00000KT 10SM BKN034 19/17 A3016 RMK AO2 T01880172
 
KRIC - Richmond, Virginia, USA
Distance from station: ENE 19mi, 31km
Updated: Tue, 26-May-2020 8:54pm EDT
Mostly cloudy
Mostly cloudy
 Wind from calm
Wind: Calm
Temperature: 68°F , 20°C
Dew Point: 64°F , 18°C
Humidity: 88%
Barometer: 30.16 inHg , 1021.3 hPa
Clouds: Mostly cloudy
Visibility: 10 miles , 16 km
Cloud details: Few Clouds 2700 ft
Partly cloudy 3700 ft
Mostly cloudy 30000 ft
2020/05/27 00:54 KRIC 270054Z 00000KT 10SM FEW027 SCT037 BKN300 20/18 A3016 RMK AO2 SLP216 T02000183
KOFP - Richmond/Hanover, Virginia, USA
Distance from station: NNE 22mi, 36km
Updated: Tue, 26-May-2020 8:54pm EDT
Mostly cloudy
Mostly cloudy
 Wind from calm
Wind: Calm
Temperature: 70°F , 21°C
Dew Point: 64°F , 18°C
Humidity: 83%
Barometer: 30.17 inHg , 1021.7 hPa
Clouds: Mostly cloudy
Visibility: 9 miles , 14 km
Cloud details: Mostly cloudy 3900 ft
2020/05/27 00:54 KOFP 270054Z AUTO 00000KT 9SM BKN039 21/18 A3017 RMK AO2 SLP214 T02110178
 
KW96 - Quinton, Virginia, USA
Distance from station: E 28mi, 46km
Updated: Tue, 26-May-2020 9:55pm EDT
Clear
Clear
 Wind from calm
Wind: Calm
Temperature: 64°F , 18°C
Dew Point: 64°F , 18°C
Humidity: 100%
Barometer: 30.17 inHg , 1021.7 hPa
Clouds: Clear
Visibility: 10 miles , 16 km
2020/05/27 01:55 KW96 270155Z AUTO 00000KT 10SM CLR 18/18 A3017 RMK AO1 T01810181
KBKT - Blackstone Army, Virginia, USA
Distance from station: SW 30mi, 48km
Updated: Tue, 26-May-2020 9:35pm EDT
Overcast
Overcast
 Wind from E
Wind: E 3 mph , 6 km/h
Temperature: 68°F , 20°C
Dew Point: 68°F , 20°C
Humidity: 100%
Barometer: 30.16 inHg , 1021.3 hPa
Clouds: Overcast
Visibility: 10 miles , 16 km
Cloud details: Overcast 3800 ft
2020/05/27 01:35 KBKT 270135Z AUTO 08003KT 10SM OVC038 20/20 A3016 RMK AO1 T01950195
 
KW81 - Crewe, Virginia, USA
Distance from station: SW 30mi, 49km
Updated: Tue, 26-May-2020 9:15am EDT
NOT Current
Overcast
Overcast
 Wind from NNE
Wind: NNE 3 mph , 6 km/h
Barometer: 30.22 inHg , 1023.4 hPa
Clouds: Overcast
Visibility: 10 miles , 16 km
Cloud details: Overcast 400 ft
2020/05/26 13:15 KW81 261315Z AUTO 03003KT 10SM OVC004 A3022 RMK AO1
K7W4 - Bumpass, Virginia, USA
Distance from station: N 38mi, 61km
Updated: Tue, 26-May-2020 9:35pm EDT
Overcast
Overcast
 Wind from E
Wind: E 3 mph , 6 km/h
Temperature: 68°F , 20°C
Dew Point: 66°F , 19°C
Humidity: 94%
Barometer: 30.16 inHg , 1021.3 hPa
Clouds: Overcast
Visibility: 10 miles , 16 km
Cloud details: Mostly cloudy 2800 ft
Overcast 3700 ft
2020/05/27 01:35 K7W4 270135Z AUTO 09003KT 10SM BKN028 OVC037 20/19 A3016 RMK AO1 T02020194
 
KFVX - Farmville, Virginia, USA
Distance from station: W 43mi, 69km
Updated: Tue, 26-May-2020 9:35pm EDT
Overcast
Overcast
 Wind from ESE
Wind: ESE 3 mph , 6 km/h
Temperature: 70°F , 21°C
Dew Point: 64°F , 18°C
Humidity: 83%
Barometer: 30.15 inHg , 1021 hPa
Clouds: Overcast
Visibility: 10 miles , 16 km
Cloud details: Overcast 3600 ft
2020/05/27 01:35 KFVX 270135Z AUTO 11003KT 10SM OVC036 21/18 A3015 RMK AO2 T02120178
KW31 - Kenbridge, Virginia, USA
Distance from station: SW 43mi, 70km
Updated: Tue, 26-May-2020 9:55pm EDT
Overcast
Overcast
 Wind from calm
Wind: Calm
Temperature: 68°F , 20°C
Dew Point: 68°F , 20°C
Humidity: 100%
Barometer: 30.15 inHg , 1021 hPa
Clouds: Overcast
Visibility: 10 miles , 16 km
Cloud details: Mostly cloudy 800 ft
Overcast 1500 ft
2020/05/27 01:55 KW31 270155Z AUTO 00000KT 10SM BKN008 OVC015 20/20 A3015 RMK AO1 T01950195
 
KLKU - Louisa, Virginia, USA
Distance from station: NNW 44mi, 72km
Updated: Tue, 26-May-2020 9:35pm EDT
Mostly cloudy
Mostly cloudy
 Wind from calm
Wind: Calm
Temperature: 63°F , 17°C
Dew Point: 63°F , 17°C
Humidity: 100%
Barometer: 30.20 inHg , 1022.7 hPa
Clouds: Mostly cloudy
Visibility: 10 miles , 16 km
Cloud details: Mostly cloudy 2800 ft
Mostly cloudy 3700 ft
2020/05/27 01:35 KLKU 270135Z AUTO 00000KT 10SM BKN028 BKN037 17/17 A3020 RMK AO2 T01740167
KLVL - Lawrenceville, Virginia, USA
Distance from station: S 46mi, 75km
Updated: Tue, 26-May-2020 9:35pm EDT
Overcast
Overcast
 Wind from calm
Wind: Calm
Temperature: 68°F , 20°C
Dew Point: 66°F , 19°C
Humidity: 94%
Barometer: 30.16 inHg , 1021.3 hPa
Clouds: Overcast
Visibility: 10 miles , 16 km
Cloud details: Overcast 3900 ft
2020/05/27 01:35 KLVL 270135Z AUTO 00000KT 10SM OVC039 20/19 A3016 RMK AO1 T01960191
 
KAKQ - Norfolk/Wakefld, Virginia, USA
Distance from station: SE 47mi, 75km
Updated: Tue, 26-May-2020 8:54pm EDT
Overcast
Overcast
 Wind from calm
Wind: Calm
Temperature: 70°F , 21°C
Dew Point: 64°F , 18°C
Humidity: 83%
Barometer: 30.16 inHg , 1021.3 hPa
Clouds: Overcast
Visibility: 10 miles , 16 km
Cloud details: Overcast 3200 ft
2020/05/27 00:54 KAKQ 270054Z AUTO 00000KT 10SM OVC032 21/18 A3016 RMK AO2 SLP212 T02060183
KFYJ - West Point, Virginia, USA
Distance from station: E 48mi, 78km
Updated: Tue, 26-May-2020 9:35pm EDT
Clear
Clear
 Wind from ESE
Wind: ESE 3 mph , 6 km/h
Temperature: 64°F , 18°C
Dew Point: 64°F , 18°C
Humidity: 100%
Barometer: 30.18 inHg , 1022 hPa
Clouds: Clear
Visibility: 10 miles , 16 km
2020/05/27 01:35 KFYJ 270135Z AUTO 12003KT 10SM CLR 18/18 A3018 RMK AO1 T01790175
 
KXSA - Tappahannock, Virginia, USA
Distance from station: NE 51mi, 82km
Updated: Tue, 26-May-2020 9:35pm EDT
Clear
Clear
 Wind from calm
Wind: Calm
Temperature: 64°F , 18°C
Dew Point: 64°F , 18°C
Humidity: 100%
Barometer: 30.17 inHg , 1021.7 hPa
Clouds: Clear
Visibility: 10 miles , 16 km
2020/05/27 01:35 KXSA 270135Z AUTO 00000KT 10SM CLR 18/18 A3017 RMK AO2 T01840184
KEMV - Emporia, Virginia, USA
Distance from station: S 52mi, 84km
Updated: Tue, 26-May-2020 9:35pm EDT
Clear
Clear
 Wind from calm
Wind: Calm
Temperature: 68°F , 20°C
Dew Point: 66°F , 19°C
Humidity: 94%
Barometer: 30.17 inHg , 1021.7 hPa
Clouds: Clear
Visibility: 10 miles , 16 km
2020/05/27 01:35 KEMV 270135Z AUTO 00000KT 10SM CLR 20/19 A3017 RMK AO2 T01950185
 
KJGG - Williamsburg, Virginia, USA
Distance from station: ESE 53mi, 85km
Updated: Tue, 26-May-2020 9:35pm EDT
Mostly cloudy
Mostly cloudy
 Wind from calm
Wind: Calm
Temperature: 66°F , 19°C
Dew Point: 64°F , 18°C
Humidity: 94%
Barometer: 30.18 inHg , 1022 hPa
Clouds: Mostly cloudy
Visibility: 10 miles , 16 km
Cloud details: Mostly cloudy 600 ft
2020/05/27 01:35 KJGG 270135Z AUTO 00000KT 10SM BKN006 19/18 A3018 RMK AO1
KAVC - South Hill/Meckl, Virginia, USA
Distance from station: SSW 56mi, 90km
Updated: Tue, 26-May-2020 9:35pm EDT
Overcast
Overcast
 Wind from calm
Wind: Calm
Temperature: 68°F , 20°C
Dew Point: 66°F , 19°C
Humidity: 94%
Barometer: 30.20 inHg , 1022.7 hPa
Clouds: Overcast
Visibility: 10 miles , 16 km
Cloud details: Partly cloudy 600 ft
Overcast 3700 ft
2020/05/27 01:35 KAVC 270135Z AUTO 00000KT 10SM SCT006 OVC037 20/19 A3020 RMK AO2 T01960185
 
KGVE - Gordonsville, Virginia, USA
Distance from station: NNW 58mi, 93km
Updated: Tue, 26-May-2020 9:35pm EDT
Clear
Clear
 Wind from calm
Wind: Calm
Temperature: 66°F , 19°C
Dew Point: 66°F , 19°C
Humidity: 100%
Barometer: 30.15 inHg , 1021 hPa
Clouds: Clear
Visibility: 10 miles , 16 km
2020/05/27 01:35 KGVE 270135Z AUTO 00000KT 10SM CLR 19/19 A3015 RMK AO1 T01880188
KEZF - Fredericksb/Shan, Virginia, USA
Distance from station: N 59mi, 95km
Updated: Tue, 26-May-2020 9:35pm EDT
Clear
Clear
 Wind from ESE
Wind: ESE 3 mph , 6 km/h
Temperature: 70°F , 21°C
Dew Point: 66°F , 19°C
Humidity: 88%
Barometer: 30.15 inHg , 1021 hPa
Clouds: Clear
Visibility: 10 miles , 16 km
2020/05/27 01:35 KEZF 270135Z AUTO 11003KT 10SM CLR 21/19 A3015 RMK AO2 T02050186